sensor_id;sensor_type;location;lat;lon;timestamp;P1;durP1;ratioP1;P2;durP2;ratioP2
17844;SDS011;9047;53.486;10.218;2022-10-22T00:01:37;31.80;;;18.55;;
17844;SDS011;9047;53.486;10.218;2022-10-22T00:04:04;29.05;;;17.77;;
17844;SDS011;9047;53.486;10.218;2022-10-22T00:06:31;30.10;;;17.90;;
17844;SDS011;9047;53.486;10.218;2022-10-22T00:08:59;29.52;;;17.17;;
17844;SDS011;9047;53.486;10.218;2022-10-22T00:11:26;25.08;;;15.20;;
17844;SDS011;9047;53.486;10.218;2022-10-22T00:13:54;28.50;;;16.58;;
17844;SDS011;9047;53.486;10.218;2022-10-22T00:16:22;28.70;;;16.27;;
17844;SDS011;9047;53.486;10.218;2022-10-22T00:18:49;29.20;;;17.65;;
17844;SDS011;9047;53.486;10.218;2022-10-22T00:21:17;30.45;;;17.88;;
17844;SDS011;9047;53.486;10.218;2022-10-22T00:23:44;33.15;;;16.58;;
17844;SDS011;9047;53.486;10.218;2022-10-22T00:26:11;32.10;;;17.63;;
17844;SDS011;9047;53.486;10.218;2022-10-22T00:28:38;30.25;;;16.98;;
17844;SDS011;9047;53.486;10.218;2022-10-22T00:31:06;31.92;;;17.48;;
17844;SDS011;9047;53.486;10.218;2022-10-22T00:33:33;27.23;;;15.73;;
17844;SDS011;9047;53.486;10.218;2022-10-22T00:36:00;33.95;;;17.75;;
17844;SDS011;9047;53.486;10.218;2022-10-22T00:38:27;35.33;;;17.77;;
17844;SDS011;9047;53.486;10.218;2022-10-22T00:40:54;30.80;;;18.17;;
17844;SDS011;9047;53.486;10.218;2022-10-22T00:43:20;29.70;;;17.30;;
17844;SDS011;9047;53.486;10.218;2022-10-22T00:45:47;30.83;;;16.73;;
17844;SDS011;9047;53.486;10.218;2022-10-22T00:48:17;28.80;;;16.77;;
17844;SDS011;9047;53.486;10.218;2022-10-22T00:50:46;28.08;;;16.27;;
17844;SDS011;9047;53.486;10.218;2022-10-22T00:53:21;32.28;;;17.08;;
17844;SDS011;9047;53.486;10.218;2022-10-22T00:55:51;30.15;;;16.90;;
17844;SDS011;9047;53.486;10.218;2022-10-22T00:58:22;29.92;;;17.02;;
17844;SDS011;9047;53.486;10.218;2022-10-22T01:00:53;29.95;;;17.60;;
17844;SDS011;9047;53.486;10.218;2022-10-22T01:03:22;27.65;;;16.80;;
17844;SDS011;9047;53.486;10.218;2022-10-22T01:05:51;25.33;;;15.85;;
17844;SDS011;9047;53.486;10.218;2022-10-22T01:08:25;26.70;;;16.25;;
17844;SDS011;9047;53.486;10.218;2022-10-22T01:11:01;28.98;;;16.00;;
17844;SDS011;9047;53.486;10.218;2022-10-22T01:13:38;26.38;;;15.68;;
17844;SDS011;9047;53.486;10.218;2022-10-22T01:16:15;28.50;;;16.42;;
17844;SDS011;9047;53.486;10.218;2022-10-22T01:18:48;27.48;;;16.77;;
17844;SDS011;9047;53.486;10.218;2022-10-22T01:21:23;29.25;;;16.92;;
17844;SDS011;9047;53.486;10.218;2022-10-22T01:24:08;26.17;;;15.48;;
17844;SDS011;9047;53.486;10.218;2022-10-22T01:27:13;25.65;;;16.50;;
17844;SDS011;9047;53.486;10.218;2022-10-22T01:29:51;25.48;;;15.82;;
17844;SDS011;9047;53.486;10.218;2022-10-22T01:32:21;26.77;;;16.00;;
17844;SDS011;9047;53.486;10.218;2022-10-22T01:34:51;25.83;;;16.00;;
17844;SDS011;9047;53.486;10.218;2022-10-22T01:37:21;26.42;;;17.05;;
17844;SDS011;9047;53.486;10.218;2022-10-22T01:39:51;26.70;;;15.88;;
17844;SDS011;9047;53.486;10.218;2022-10-22T01:42:19;27.75;;;17.10;;
17844;SDS011;9047;53.486;10.218;2022-10-22T01:44:46;29.90;;;17.08;;
17844;SDS011;9047;53.486;10.218;2022-10-22T01:47:16;29.65;;;16.92;;
17844;SDS011;9047;53.486;10.218;2022-10-22T01:52:50;29.23;;;16.35;;
17844;SDS011;9047;53.486;10.218;2022-10-22T01:55:32;26.30;;;16.23;;
17844;SDS011;9047;53.486;10.218;2022-10-22T01:58:09;25.60;;;15.02;;
17844;SDS011;9047;53.486;10.218;2022-10-22T02:00:46;24.05;;;15.27;;
17844;SDS011;9047;53.486;10.218;2022-10-22T02:03:22;22.88;;;14.57;;
17844;SDS011;9047;53.486;10.218;2022-10-22T02:05:54;28.42;;;15.23;;
17844;SDS011;9047;53.486;10.218;2022-10-22T02:08:27;23.60;;;14.35;;
17844;SDS011;9047;53.486;10.218;2022-10-22T02:10:57;25.48;;;15.48;;
17844;SDS011;9047;53.486;10.218;2022-10-22T02:13:26;26.08;;;15.65;;
17844;SDS011;9047;53.486;10.218;2022-10-22T02:15:57;29.55;;;16.40;;
17844;SDS011;9047;53.486;10.218;2022-10-22T02:18:30;28.98;;;15.98;;
17844;SDS011;9047;53.486;10.218;2022-10-22T02:20:59;26.55;;;15.13;;
17844;SDS011;9047;53.486;10.218;2022-10-22T02:23:27;27.92;;;16.48;;
17844;SDS011;9047;53.486;10.218;2022-10-22T02:25:55;26.25;;;15.40;;
17844;SDS011;9047;53.486;10.218;2022-10-22T02:28:28;24.08;;;14.40;;
17844;SDS011;9047;53.486;10.218;2022-10-22T02:31:03;27.92;;;15.98;;
17844;SDS011;9047;53.486;10.218;2022-10-22T02:33:37;30.13;;;16.38;;
17844;SDS011;9047;53.486;10.218;2022-10-22T02:36:10;30.52;;;16.70;;
17844;SDS011;9047;53.486;10.218;2022-10-22T02:38:38;31.08;;;17.08;;
17844;SDS011;9047;53.486;10.218;2022-10-22T02:41:06;30.23;;;16.90;;
17844;SDS011;9047;53.486;10.218;2022-10-22T02:43:37;30.83;;;17.85;;
17844;SDS011;9047;53.486;10.218;2022-10-22T02:46:06;35.47;;;18.77;;
17844;SDS011;9047;53.486;10.218;2022-10-22T02:48:33;31.58;;;17.65;;
17844;SDS011;9047;53.486;10.218;2022-10-22T02:51:02;30.25;;;17.15;;
17844;SDS011;9047;53.486;10.218;2022-10-22T02:53:29;31.20;;;17.90;;
17844;SDS011;9047;53.486;10.218;2022-10-22T02:55:56;31.05;;;17.35;;
17844;SDS011;9047;53.486;10.218;2022-10-22T02:58:23;33.22;;;16.50;;
17844;SDS011;9047;53.486;10.218;2022-10-22T03:00:50;30.85;;;17.95;;
17844;SDS011;9047;53.486;10.218;2022-10-22T03:03:17;28.30;;;16.23;;
17844;SDS011;9047;53.486;10.218;2022-10-22T03:05:45;27.92;;;15.98;;
17844;SDS011;9047;53.486;10.218;2022-10-22T03:08:12;28.42;;;16.50;;
17844;SDS011;9047;53.486;10.218;2022-10-22T03:10:39;32.15;;;17.88;;
17844;SDS011;9047;53.486;10.218;2022-10-22T03:13:05;29.00;;;16.95;;
17844;SDS011;9047;53.486;10.218;2022-10-22T03:15:33;31.17;;;18.17;;
17844;SDS011;9047;53.486;10.218;2022-10-22T03:17:59;31.65;;;17.42;;
17844;SDS011;9047;53.486;10.218;2022-10-22T03:20:26;30.60;;;16.83;;
17844;SDS011;9047;53.486;10.218;2022-10-22T03:22:54;32.60;;;17.40;;
17844;SDS011;9047;53.486;10.218;2022-10-22T03:25:23;30.77;;;16.40;;
17844;SDS011;9047;53.486;10.218;2022-10-22T03:27:52;32.45;;;17.73;;
17844;SDS011;9047;53.486;10.218;2022-10-22T03:30:20;32.65;;;17.13;;
17844;SDS011;9047;53.486;10.218;2022-10-22T03:32:47;32.38;;;18.23;;
17844;SDS011;9047;53.486;10.218;2022-10-22T03:35:14;37.30;;;18.73;;
17844;SDS011;9047;53.486;10.218;2022-10-22T03:37:41;34.17;;;17.38;;
17844;SDS011;9047;53.486;10.218;2022-10-22T03:40:10;28.73;;;15.23;;
17844;SDS011;9047;53.486;10.218;2022-10-22T03:42:39;36.05;;;18.05;;
17844;SDS011;9047;53.486;10.218;2022-10-22T03:45:09;30.35;;;16.20;;
17844;SDS011;9047;53.486;10.218;2022-10-22T03:47:36;32.03;;;16.73;;
17844;SDS011;9047;53.486;10.218;2022-10-22T03:50:04;29.17;;;15.13;;
17844;SDS011;9047;53.486;10.218;2022-10-22T03:52:34;30.77;;;16.48;;
17844;SDS011;9047;53.486;10.218;2022-10-22T03:55:01;42.47;;;18.55;;
17844;SDS011;9047;53.486;10.218;2022-10-22T03:57:31;30.02;;;15.68;;
17844;SDS011;9047;53.486;10.218;2022-10-22T03:59:58;34.70;;;16.80;;
17844;SDS011;9047;53.486;10.218;2022-10-22T04:02:24;25.60;;;14.52;;
17844;SDS011;9047;53.486;10.218;2022-10-22T04:04:51;25.42;;;14.80;;
17844;SDS011;9047;53.486;10.218;2022-10-22T04:07:19;25.90;;;14.80;;
17844;SDS011;9047;53.486;10.218;2022-10-22T04:09:45;29.33;;;15.73;;
17844;SDS011;9047;53.486;10.218;2022-10-22T04:12:12;32.95;;;16.73;;
17844;SDS011;9047;53.486;10.218;2022-10-22T04:14:41;27.60;;;16.15;;
17844;SDS011;9047;53.486;10.218;2022-10-22T04:17:08;37.17;;;18.98;;
17844;SDS011;9047;53.486;10.218;2022-10-22T04:19:35;41.50;;;18.98;;
17844;SDS011;9047;53.486;10.218;2022-10-22T04:22:02;28.88;;;15.38;;
17844;SDS011;9047;53.486;10.218;2022-10-22T04:24:29;28.88;;;16.08;;
17844;SDS011;9047;53.486;10.218;2022-10-22T04:26:56;24.73;;;14.43;;
17844;SDS011;9047;53.486;10.218;2022-10-22T04:29:23;27.83;;;14.50;;
17844;SDS011;9047;53.486;10.218;2022-10-22T04:31:53;28.08;;;15.00;;
17844;SDS011;9047;53.486;10.218;2022-10-22T04:34:20;25.65;;;14.57;;
17844;SDS011;9047;53.486;10.218;2022-10-22T04:36:47;27.77;;;15.80;;
17844;SDS011;9047;53.486;10.218;2022-10-22T04:39:14;29.70;;;15.68;;
17844;SDS011;9047;53.486;10.218;2022-10-22T04:41:41;30.33;;;17.00;;
17844;SDS011;9047;53.486;10.218;2022-10-22T04:44:08;29.95;;;15.60;;
17844;SDS011;9047;53.486;10.218;2022-10-22T04:46:35;30.80;;;15.23;;
17844;SDS011;9047;53.486;10.218;2022-10-22T04:49:03;26.48;;;14.38;;
17844;SDS011;9047;53.486;10.218;2022-10-22T04:51:30;31.02;;;16.38;;
17844;SDS011;9047;53.486;10.218;2022-10-22T04:53:58;30.15;;;16.00;;
17844;SDS011;9047;53.486;10.218;2022-10-22T04:56:25;31.23;;;16.17;;
17844;SDS011;9047;53.486;10.218;2022-10-22T04:58:55;30.23;;;15.95;;
17844;SDS011;9047;53.486;10.218;2022-10-22T05:01:23;27.25;;;15.95;;
17844;SDS011;9047;53.486;10.218;2022-10-22T05:03:53;28.20;;;14.57;;
17844;SDS011;9047;53.486;10.218;2022-10-22T05:06:22;34.92;;;17.83;;
17844;SDS011;9047;53.486;10.218;2022-10-22T05:08:54;28.85;;;15.13;;
17844;SDS011;9047;53.486;10.218;2022-10-22T05:11:23;32.05;;;16.67;;
17844;SDS011;9047;53.486;10.218;2022-10-22T05:13:52;28.33;;;15.63;;
17844;SDS011;9047;53.486;10.218;2022-10-22T05:16:20;30.25;;;15.95;;
17844;SDS011;9047;53.486;10.218;2022-10-22T05:18:47;31.67;;;16.23;;
17844;SDS011;9047;53.486;10.218;2022-10-22T05:21:15;35.95;;;17.45;;
17844;SDS011;9047;53.486;10.218;2022-10-22T05:23:45;35.70;;;18.13;;
17844;SDS011;9047;53.486;10.218;2022-10-22T05:26:14;35.92;;;17.75;;
17844;SDS011;9047;53.486;10.218;2022-10-22T05:28:42;33.88;;;17.27;;
17844;SDS011;9047;53.486;10.218;2022-10-22T05:31:10;36.50;;;18.70;;
17844;SDS011;9047;53.486;10.218;2022-10-22T05:33:39;39.38;;;20.20;;
17844;SDS011;9047;53.486;10.218;2022-10-22T05:36:07;46.92;;;19.95;;
17844;SDS011;9047;53.486;10.218;2022-10-22T05:38:35;38.78;;;18.63;;
17844;SDS011;9047;53.486;10.218;2022-10-22T05:41:06;34.55;;;17.25;;
17844;SDS011;9047;53.486;10.218;2022-10-22T05:43:34;37.95;;;18.95;;
17844;SDS011;9047;53.486;10.218;2022-10-22T05:46:01;43.17;;;18.23;;
17844;SDS011;9047;53.486;10.218;2022-10-22T05:48:29;40.58;;;18.92;;
17844;SDS011;9047;53.486;10.218;2022-10-22T05:50:56;46.28;;;18.80;;
17844;SDS011;9047;53.486;10.218;2022-10-22T05:53:28;36.83;;;17.10;;
17844;SDS011;9047;53.486;10.218;2022-10-22T05:55:55;31.63;;;16.48;;
17844;SDS011;9047;53.486;10.218;2022-10-22T05:58:29;36.92;;;17.20;;
17844;SDS011;9047;53.486;10.218;2022-10-22T06:00:59;42.88;;;17.27;;
17844;SDS011;9047;53.486;10.218;2022-10-22T06:03:27;46.20;;;17.35;;
17844;SDS011;9047;53.486;10.218;2022-10-22T06:05:55;39.80;;;16.67;;
17844;SDS011;9047;53.486;10.218;2022-10-22T06:08:23;23.73;;;13.90;;
17844;SDS011;9047;53.486;10.218;2022-10-22T06:10:50;30.58;;;16.35;;
17844;SDS011;9047;53.486;10.218;2022-10-22T06:13:18;30.55;;;15.55;;
17844;SDS011;9047;53.486;10.218;2022-10-22T06:15:48;29.75;;;15.18;;
17844;SDS011;9047;53.486;10.218;2022-10-22T06:18:18;26.83;;;15.10;;
17844;SDS011;9047;53.486;10.218;2022-10-22T06:20:45;32.65;;;15.68;;
17844;SDS011;9047;53.486;10.218;2022-10-22T06:23:12;27.08;;;14.25;;
17844;SDS011;9047;53.486;10.218;2022-10-22T06:25:40;30.02;;;14.93;;
17844;SDS011;9047;53.486;10.218;2022-10-22T06:28:07;29.50;;;15.45;;
17844;SDS011;9047;53.486;10.218;2022-10-22T06:30:35;24.65;;;14.15;;
17844;SDS011;9047;53.486;10.218;2022-10-22T06:33:04;37.50;;;15.45;;
17844;SDS011;9047;53.486;10.218;2022-10-22T06:35:33;25.90;;;14.82;;
17844;SDS011;9047;53.486;10.218;2022-10-22T06:38:00;24.58;;;13.18;;
17844;SDS011;9047;53.486;10.218;2022-10-22T06:40:28;37.10;;;16.10;;
17844;SDS011;9047;53.486;10.218;2022-10-22T06:42:57;53.30;;;17.02;;
17844;SDS011;9047;53.486;10.218;2022-10-22T06:45:24;44.22;;;16.30;;
17844;SDS011;9047;53.486;10.218;2022-10-22T06:47:51;37.60;;;15.93;;
17844;SDS011;9047;53.486;10.218;2022-10-22T06:50:21;25.25;;;14.07;;
17844;SDS011;9047;53.486;10.218;2022-10-22T06:52:48;27.48;;;15.05;;
17844;SDS011;9047;53.486;10.218;2022-10-22T06:55:15;35.65;;;15.23;;
17844;SDS011;9047;53.486;10.218;2022-10-22T06:57:42;31.58;;;15.40;;
17844;SDS011;9047;53.486;10.218;2022-10-22T07:00:09;19.30;;;12.07;;
17844;SDS011;9047;53.486;10.218;2022-10-22T07:02:37;33.33;;;16.33;;
17844;SDS011;9047;53.486;10.218;2022-10-22T07:05:04;36.92;;;16.70;;
17844;SDS011;9047;53.486;10.218;2022-10-22T07:07:33;28.20;;;15.40;;
17844;SDS011;9047;53.486;10.218;2022-10-22T07:10:02;26.05;;;15.07;;
17844;SDS011;9047;53.486;10.218;2022-10-22T07:12:29;27.23;;;15.43;;
17844;SDS011;9047;53.486;10.218;2022-10-22T07:14:56;23.63;;;13.77;;
17844;SDS011;9047;53.486;10.218;2022-10-22T07:17:22;23.27;;;14.15;;
17844;SDS011;9047;53.486;10.218;2022-10-22T07:19:49;27.63;;;15.77;;
17844;SDS011;9047;53.486;10.218;2022-10-22T07:22:16;26.42;;;15.63;;
17844;SDS011;9047;53.486;10.218;2022-10-22T07:24:50;27.63;;;16.52;;
17844;SDS011;9047;53.486;10.218;2022-10-22T07:27:17;28.40;;;17.50;;
17844;SDS011;9047;53.486;10.218;2022-10-22T07:29:44;23.25;;;14.73;;
17844;SDS011;9047;53.486;10.218;2022-10-22T07:32:11;26.75;;;15.40;;
17844;SDS011;9047;53.486;10.218;2022-10-22T07:34:38;26.58;;;16.73;;
17844;SDS011;9047;53.486;10.218;2022-10-22T07:37:05;23.95;;;14.70;;
17844;SDS011;9047;53.486;10.218;2022-10-22T07:39:32;28.85;;;16.20;;
17844;SDS011;9047;53.486;10.218;2022-10-22T07:42:00;23.23;;;15.07;;
17844;SDS011;9047;53.486;10.218;2022-10-22T07:44:27;19.77;;;13.75;;
17844;SDS011;9047;53.486;10.218;2022-10-22T07:46:53;20.52;;;13.27;;
17844;SDS011;9047;53.486;10.218;2022-10-22T07:49:20;23.33;;;15.30;;
17844;SDS011;9047;53.486;10.218;2022-10-22T07:51:47;22.23;;;14.75;;
17844;SDS011;9047;53.486;10.218;2022-10-22T07:54:14;19.45;;;12.93;;
17844;SDS011;9047;53.486;10.218;2022-10-22T07:56:43;21.60;;;14.60;;
17844;SDS011;9047;53.486;10.218;2022-10-22T07:59:11;21.08;;;13.70;;
17844;SDS011;9047;53.486;10.218;2022-10-22T08:01:39;20.25;;;14.10;;
17844;SDS011;9047;53.486;10.218;2022-10-22T08:04:07;19.88;;;12.70;;
17844;SDS011;9047;53.486;10.218;2022-10-22T08:06:36;17.38;;;11.93;;
17844;SDS011;9047;53.486;10.218;2022-10-22T08:09:03;18.05;;;12.52;;
17844;SDS011;9047;53.486;10.218;2022-10-22T08:11:30;18.27;;;12.60;;
17844;SDS011;9047;53.486;10.218;2022-10-22T08:13:59;16.02;;;12.05;;
17844;SDS011;9047;53.486;10.218;2022-10-22T08:16:27;16.30;;;11.80;;
17844;SDS011;9047;53.486;10.218;2022-10-22T08:18:54;15.93;;;10.98;;
17844;SDS011;9047;53.486;10.218;2022-10-22T08:21:21;19.75;;;11.85;;
17844;SDS011;9047;53.486;10.218;2022-10-22T08:23:48;13.80;;;10.75;;
17844;SDS011;9047;53.486;10.218;2022-10-22T08:26:18;14.95;;;10.82;;
17844;SDS011;9047;53.486;10.218;2022-10-22T08:28:47;16.55;;;11.43;;
17844;SDS011;9047;53.486;10.218;2022-10-22T08:31:13;16.30;;;10.68;;
17844;SDS011;9047;53.486;10.218;2022-10-22T08:33:41;14.30;;;10.75;;
17844;SDS011;9047;53.486;10.218;2022-10-22T08:36:10;15.32;;;10.23;;
17844;SDS011;9047;53.486;10.218;2022-10-22T08:38:38;13.85;;;10.05;;
17844;SDS011;9047;53.486;10.218;2022-10-22T08:41:07;15.35;;;10.52;;
17844;SDS011;9047;53.486;10.218;2022-10-22T08:46:36;13.13;;;9.88;;
17844;SDS011;9047;53.486;10.218;2022-10-22T08:52:16;17.23;;;10.23;;
17844;SDS011;9047;53.486;10.218;2022-10-22T08:54:47;14.70;;;9.30;;
17844;SDS011;9047;53.486;10.218;2022-10-22T08:57:23;15.90;;;9.32;;
17844;SDS011;9047;53.486;10.218;2022-10-22T09:00:12;13.52;;;8.48;;
17844;SDS011;9047;53.486;10.218;2022-10-22T09:02:44;13.52;;;9.45;;
17844;SDS011;9047;53.486;10.218;2022-10-22T09:05:27;14.13;;;8.50;;
17844;SDS011;9047;53.486;10.218;2022-10-22T09:08:02;13.18;;;7.82;;
17844;SDS011;9047;53.486;10.218;2022-10-22T09:10:30;17.20;;;8.73;;
17844;SDS011;9047;53.486;10.218;2022-10-22T09:13:02;14.20;;;9.35;;
17844;SDS011;9047;53.486;10.218;2022-10-22T09:15:30;10.80;;;7.63;;
17844;SDS011;9047;53.486;10.218;2022-10-22T09:17:58;11.73;;;7.70;;
17844;SDS011;9047;53.486;10.218;2022-10-22T09:20:40;15.05;;;7.97;;
17844;SDS011;9047;53.486;10.218;2022-10-22T09:23:19;14.27;;;7.57;;
17844;SDS011;9047;53.486;10.218;2022-10-22T09:25:50;14.27;;;7.45;;
17844;SDS011;9047;53.486;10.218;2022-10-22T09:28:17;14.15;;;7.60;;
17844;SDS011;9047;53.486;10.218;2022-10-22T09:30:44;12.15;;;6.95;;
17844;SDS011;9047;53.486;10.218;2022-10-22T09:33:12;12.10;;;6.63;;
17844;SDS011;9047;53.486;10.218;2022-10-22T09:35:45;13.10;;;6.57;;
17844;SDS011;9047;53.486;10.218;2022-10-22T09:38:18;11.85;;;6.38;;
17844;SDS011;9047;53.486;10.218;2022-10-22T09:40:47;7.38;;;5.50;;
17844;SDS011;9047;53.486;10.218;2022-10-22T09:43:16;13.85;;;6.70;;
17844;SDS011;9047;53.486;10.218;2022-10-22T09:45:44;9.68;;;6.38;;
17844;SDS011;9047;53.486;10.218;2022-10-22T09:48:14;11.05;;;6.20;;
17844;SDS011;9047;53.486;10.218;2022-10-22T09:50:56;13.25;;;6.07;;
17844;SDS011;9047;53.486;10.218;2022-10-22T09:53:28;7.93;;;5.07;;
17844;SDS011;9047;53.486;10.218;2022-10-22T09:55:57;9.98;;;5.50;;
17844;SDS011;9047;53.486;10.218;2022-10-22T09:58:26;13.02;;;6.15;;
17844;SDS011;9047;53.486;10.218;2022-10-22T10:00:56;12.63;;;5.35;;
17844;SDS011;9047;53.486;10.218;2022-10-22T10:03:25;11.48;;;4.97;;
17844;SDS011;9047;53.486;10.218;2022-10-22T10:05:59;9.88;;;5.43;;
17844;SDS011;9047;53.486;10.218;2022-10-22T10:08:27;9.95;;;5.03;;
17844;SDS011;9047;53.486;10.218;2022-10-22T10:10:55;11.55;;;5.40;;
17844;SDS011;9047;53.486;10.218;2022-10-22T10:13:30;12.30;;;5.50;;
17844;SDS011;9047;53.486;10.218;2022-10-22T10:16:07;12.52;;;5.00;;
17844;SDS011;9047;53.486;10.218;2022-10-22T10:18:42;12.02;;;5.45;;
17844;SDS011;9047;53.486;10.218;2022-10-22T10:21:23;10.88;;;4.95;;
17844;SDS011;9047;53.486;10.218;2022-10-22T10:23:57;8.20;;;4.30;;
17844;SDS011;9047;53.486;10.218;2022-10-22T10:26:32;10.65;;;4.68;;
17844;SDS011;9047;53.486;10.218;2022-10-22T10:29:11;7.90;;;4.63;;
17844;SDS011;9047;53.486;10.218;2022-10-22T10:31:59;8.65;;;4.47;;
17844;SDS011;9047;53.486;10.218;2022-10-22T10:34:38;6.80;;;3.60;;
17844;SDS011;9047;53.486;10.218;2022-10-22T10:37:16;7.43;;;4.13;;
17844;SDS011;9047;53.486;10.218;2022-10-22T10:39:52;8.43;;;3.58;;
17844;SDS011;9047;53.486;10.218;2022-10-22T10:42:29;8.05;;;3.92;;
17844;SDS011;9047;53.486;10.218;2022-10-22T10:45:02;7.28;;;3.45;;
17844;SDS011;9047;53.486;10.218;2022-10-22T10:47:49;6.80;;;3.10;;
17844;SDS011;9047;53.486;10.218;2022-10-22T10:50:33;8.68;;;3.30;;
17844;SDS011;9047;53.486;10.218;2022-10-22T10:53:09;6.97;;;3.47;;
17844;SDS011;9047;53.486;10.218;2022-10-22T10:55:46;10.80;;;3.33;;
17844;SDS011;9047;53.486;10.218;2022-10-22T10:58:20;5.60;;;2.63;;
17844;SDS011;9047;53.486;10.218;2022-10-22T11:00:56;7.55;;;3.20;;
17844;SDS011;9047;53.486;10.218;2022-10-22T11:06:20;7.03;;;2.78;;
17844;SDS011;9047;53.486;10.218;2022-10-22T11:08:50;9.20;;;3.17;;
17844;SDS011;9047;53.486;10.218;2022-10-22T11:11:24;8.18;;;3.05;;
17844;SDS011;9047;53.486;10.218;2022-10-22T11:13:58;8.82;;;2.88;;
17844;SDS011;9047;53.486;10.218;2022-10-22T11:16:31;8.30;;;2.80;;
17844;SDS011;9047;53.486;10.218;2022-10-22T11:19:02;7.38;;;2.65;;
17844;SDS011;9047;53.486;10.218;2022-10-22T11:21:35;6.57;;;2.47;;
17844;SDS011;9047;53.486;10.218;2022-10-22T11:24:09;5.50;;;2.15;;
17844;SDS011;9047;53.486;10.218;2022-10-22T11:26:44;6.78;;;2.03;;
17844;SDS011;9047;53.486;10.218;2022-10-22T11:29:14;6.90;;;2.20;;
17844;SDS011;9047;53.486;10.218;2022-10-22T11:31:47;8.95;;;2.70;;
17844;SDS011;9047;53.486;10.218;2022-10-22T11:34:17;9.23;;;2.63;;
17844;SDS011;9047;53.486;10.218;2022-10-22T11:36:46;7.85;;;2.53;;
17844;SDS011;9047;53.486;10.218;2022-10-22T11:39:29;7.82;;;2.80;;
17844;SDS011;9047;53.486;10.218;2022-10-22T11:42:00;9.63;;;2.58;;
17844;SDS011;9047;53.486;10.218;2022-10-22T11:44:29;7.68;;;2.20;;
17844;SDS011;9047;53.486;10.218;2022-10-22T11:46:58;5.50;;;2.20;;
17844;SDS011;9047;53.486;10.218;2022-10-22T11:49:40;5.15;;;2.25;;
17844;SDS011;9047;53.486;10.218;2022-10-22T11:52:22;4.68;;;2.35;;
17844;SDS011;9047;53.486;10.218;2022-10-22T11:54:53;7.35;;;2.65;;
17844;SDS011;9047;53.486;10.218;2022-10-22T11:57:24;8.25;;;2.97;;
17844;SDS011;9047;53.486;10.218;2022-10-22T11:59:55;7.35;;;3.40;;
17844;SDS011;9047;53.486;10.218;2022-10-22T12:02:28;10.02;;;4.93;;
17844;SDS011;9047;53.486;10.218;2022-10-22T12:05:28;9.25;;;2.80;;
17844;SDS011;9047;53.486;10.218;2022-10-22T12:08:11;6.15;;;2.13;;
17844;SDS011;9047;53.486;10.218;2022-10-22T12:13:55;7.30;;;1.90;;
17844;SDS011;9047;53.486;10.218;2022-10-22T12:16:39;4.75;;;1.75;;
17844;SDS011;9047;53.486;10.218;2022-10-22T12:19:13;5.70;;;2.08;;
17844;SDS011;9047;53.486;10.218;2022-10-22T12:21:42;5.57;;;2.20;;
17844;SDS011;9047;53.486;10.218;2022-10-22T12:24:13;6.50;;;1.95;;
17844;SDS011;9047;53.486;10.218;2022-10-22T12:26:43;11.25;;;2.20;;
17844;SDS011;9047;53.486;10.218;2022-10-22T12:29:11;5.88;;;2.05;;
17844;SDS011;9047;53.486;10.218;2022-10-22T12:31:41;5.00;;;2.03;;
17844;SDS011;9047;53.486;10.218;2022-10-22T12:34:12;5.75;;;2.20;;
17844;SDS011;9047;53.486;10.218;2022-10-22T12:36:39;5.82;;;2.25;;
17844;SDS011;9047;53.486;10.218;2022-10-22T12:39:09;8.05;;;2.22;;
17844;SDS011;9047;53.486;10.218;2022-10-22T12:41:38;5.20;;;1.90;;
17844;SDS011;9047;53.486;10.218;2022-10-22T12:44:13;5.32;;;1.95;;
17844;SDS011;9047;53.486;10.218;2022-10-22T12:46:41;5.05;;;2.33;;
17844;SDS011;9047;53.486;10.218;2022-10-22T12:49:12;6.35;;;2.17;;
17844;SDS011;9047;53.486;10.218;2022-10-22T12:51:44;6.50;;;2.47;;
17844;SDS011;9047;53.486;10.218;2022-10-22T12:54:21;5.90;;;2.38;;
17844;SDS011;9047;53.486;10.218;2022-10-22T12:56:50;5.30;;;2.55;;
17844;SDS011;9047;53.486;10.218;2022-10-22T12:59:20;7.03;;;2.42;;
17844;SDS011;9047;53.486;10.218;2022-10-22T13:01:51;6.03;;;2.60;;
17844;SDS011;9047;53.486;10.218;2022-10-22T13:04:20;6.15;;;2.47;;
17844;SDS011;9047;53.486;10.218;2022-10-22T13:07:03;5.72;;;2.85;;
17844;SDS011;9047;53.486;10.218;2022-10-22T13:09:40;5.85;;;2.70;;
17844;SDS011;9047;53.486;10.218;2022-10-22T13:12:08;6.55;;;2.92;;
17844;SDS011;9047;53.486;10.218;2022-10-22T13:14:43;8.13;;;2.90;;
17844;SDS011;9047;53.486;10.218;2022-10-22T13:17:14;5.22;;;3.00;;
17844;SDS011;9047;53.486;10.218;2022-10-22T13:19:47;7.05;;;3.25;;
17844;SDS011;9047;53.486;10.218;2022-10-22T13:22:27;5.68;;;2.90;;
17844;SDS011;9047;53.486;10.218;2022-10-22T13:24:56;8.05;;;3.08;;
17844;SDS011;9047;53.486;10.218;2022-10-22T13:27:25;8.10;;;3.00;;
17844;SDS011;9047;53.486;10.218;2022-10-22T13:29:57;6.95;;;2.60;;
17844;SDS011;9047;53.486;10.218;2022-10-22T13:32:36;6.00;;;2.80;;
17844;SDS011;9047;53.486;10.218;2022-10-22T13:35:04;6.18;;;2.80;;
17844;SDS011;9047;53.486;10.218;2022-10-22T13:37:31;5.80;;;3.13;;
17844;SDS011;9047;53.486;10.218;2022-10-22T13:39:59;8.27;;;3.20;;
17844;SDS011;9047;53.486;10.218;2022-10-22T13:42:26;7.57;;;2.70;;
17844;SDS011;9047;53.486;10.218;2022-10-22T13:44:54;8.90;;;2.88;;
17844;SDS011;9047;53.486;10.218;2022-10-22T13:47:24;5.40;;;2.63;;
17844;SDS011;9047;53.486;10.218;2022-10-22T13:49:53;6.13;;;2.53;;
17844;SDS011;9047;53.486;10.218;2022-10-22T13:52:27;6.80;;;2.70;;
17844;SDS011;9047;53.486;10.218;2022-10-22T13:54:59;9.40;;;2.65;;
17844;SDS011;9047;53.486;10.218;2022-10-22T13:57:25;6.22;;;2.70;;
17844;SDS011;9047;53.486;10.218;2022-10-22T13:59:52;6.75;;;2.75;;
17844;SDS011;9047;53.486;10.218;2022-10-22T14:02:20;7.32;;;3.33;;
17844;SDS011;9047;53.486;10.218;2022-10-22T14:04:48;10.80;;;3.60;;
17844;SDS011;9047;53.486;10.218;2022-10-22T14:07:16;8.15;;;2.83;;
17844;SDS011;9047;53.486;10.218;2022-10-22T14:09:44;6.65;;;2.85;;
17844;SDS011;9047;53.486;10.218;2022-10-22T14:12:11;7.97;;;2.72;;
17844;SDS011;9047;53.486;10.218;2022-10-22T14:14:39;5.38;;;2.60;;
17844;SDS011;9047;53.486;10.218;2022-10-22T14:17:08;9.52;;;2.65;;
17844;SDS011;9047;53.486;10.218;2022-10-22T14:19:42;4.68;;;2.45;;
17844;SDS011;9047;53.486;10.218;2022-10-22T14:22:12;6.63;;;2.50;;
17844;SDS011;9047;53.486;10.218;2022-10-22T14:24:40;7.50;;;2.47;;
17844;SDS011;9047;53.486;10.218;2022-10-22T14:27:07;7.38;;;1.95;;
17844;SDS011;9047;53.486;10.218;2022-10-22T14:29:36;7.55;;;1.98;;
17844;SDS011;9047;53.486;10.218;2022-10-22T14:32:05;5.38;;;2.22;;
17844;SDS011;9047;53.486;10.218;2022-10-22T14:34:37;6.80;;;2.15;;
17844;SDS011;9047;53.486;10.218;2022-10-22T14:37:10;8.10;;;2.90;;
17844;SDS011;9047;53.486;10.218;2022-10-22T14:39:41;7.55;;;2.90;;
17844;SDS011;9047;53.486;10.218;2022-10-22T14:42:11;6.90;;;2.38;;
17844;SDS011;9047;53.486;10.218;2022-10-22T14:44:38;10.27;;;2.80;;
17844;SDS011;9047;53.486;10.218;2022-10-22T14:47:04;8.77;;;2.47;;
17844;SDS011;9047;53.486;10.218;2022-10-22T14:49:31;7.40;;;2.50;;
17844;SDS011;9047;53.486;10.218;2022-10-22T14:51:58;10.48;;;2.40;;
17844;SDS011;9047;53.486;10.218;2022-10-22T14:54:27;7.63;;;2.70;;
17844;SDS011;9047;53.486;10.218;2022-10-22T14:56:53;6.40;;;2.30;;
17844;SDS011;9047;53.486;10.218;2022-10-22T14:59:20;9.55;;;2.22;;
17844;SDS011;9047;53.486;10.218;2022-10-22T15:01:47;6.20;;;2.13;;
17844;SDS011;9047;53.486;10.218;2022-10-22T15:04:14;9.35;;;2.03;;